createdAt,value
2019-05-30T00:02:13.891Z,98.20
2019-05-30T00:04:43.521Z,98.40
2019-05-30T00:07:13.226Z,98.40
2019-05-30T00:09:43.793Z,98.40
2019-05-30T00:12:14.041Z,98.30
2019-05-30T00:14:43.657Z,98.50
2019-05-30T00:17:13.354Z,98.40
2019-05-30T00:19:42.959Z,98.60
2019-05-30T00:22:14.483Z,98.70
2019-05-30T00:24:44.399Z,98.80
2019-05-30T00:27:13.943Z,98.90
2019-05-30T00:29:43.671Z,98.90
2019-05-30T00:32:13.565Z,98.80
2019-05-30T00:34:43.423Z,98.90
2019-05-30T00:37:13.192Z,98.90
2019-05-30T00:39:42.940Z,98.80
2019-05-30T00:42:12.819Z,98.90
2019-05-30T00:44:42.635Z,98.90
2019-05-30T00:47:12.257Z,98.90
2019-05-30T00:49:41.914Z,98.80
2019-05-30T00:52:11.796Z,98.90
2019-05-30T00:54:41.432Z,98.80
2019-05-30T00:57:11.527Z,98.70
2019-05-30T00:59:41.157Z,98.70
2019-05-30T01:02:11.450Z,98.60
2019-05-30T01:04:41.139Z,98.60
2019-05-30T01:07:10.727Z,98.60
2019-05-30T01:09:40.721Z,98.70
2019-05-30T01:12:10.832Z,98.60
2019-05-30T01:14:40.475Z,98.70
2019-05-30T01:17:10.155Z,98.70
2019-05-30T01:19:39.768Z,98.80
2019-05-30T01:22:09.371Z,98.70
2019-05-30T01:24:39.252Z,98.80
2019-05-30T01:27:08.908Z,98.70
2019-05-30T01:29:38.622Z,98.60
2019-05-30T01:32:25.635Z,98.80
2019-05-30T01:34:55.732Z,98.80
2019-05-30T01:37:25.755Z,98.90
2019-05-30T01:39:55.839Z,99.10
2019-05-30T01:42:25.766Z,99.20
2019-05-30T01:44:55.519Z,99.20
2019-05-30T01:47:25.128Z,99.20
2019-05-30T01:49:54.749Z,99.40
2019-05-30T01:52:24.384Z,99.50
2019-05-30T01:54:54.003Z,99.20
2019-05-30T01:57:23.625Z,99.40
2019-05-30T01:59:53.214Z,99.50
2019-05-30T02:02:23.399Z,99.70
2019-05-30T02:04:52.994Z,99.80
2019-05-30T02:07:22.732Z,99.90
2019-05-30T02:09:52.391Z,99.90
2019-05-30T02:12:22.055Z,99.70
2019-05-30T02:14:51.704Z,99.90
2019-05-30T02:17:21.215Z,99.90
2019-05-30T02:19:50.946Z,99.90
2019-05-30T02:22:20.716Z,99.90
2019-05-30T02:24:50.238Z,99.90
2019-05-30T02:27:19.843Z,99.90
2019-05-30T02:29:49.627Z,99.90
2019-05-30T02:32:19.339Z,99.90
2019-05-30T02:34:48.914Z,99.90
2019-05-30T02:37:20.006Z,99.90
2019-05-30T02:39:49.529Z,99.90
2019-05-30T02:42:19.284Z,99.90
2019-05-30T02:44:48.844Z,99.90
2019-05-30T02:47:22.327Z,99.90
2019-05-30T02:49:49.705Z,99.90
2019-05-30T02:52:19.449Z,99.90
2019-05-30T02:54:49.038Z,99.90
2019-05-30T02:57:18.776Z,99.90
2019-05-30T02:59:48.667Z,99.90
2019-05-30T03:02:18.535Z,99.90
2019-05-30T03:04:48.107Z,99.90
2019-05-30T03:07:18.454Z,99.90
2019-05-30T03:09:48.084Z,99.90
2019-05-30T03:12:17.716Z,99.90
2019-05-30T03:14:47.387Z,99.90
2019-05-30T03:17:16.991Z,99.90
2019-05-30T03:19:46.559Z,99.90
2019-05-30T03:22:16.630Z,99.90
2019-05-30T03:24:46.317Z,99.90
2019-05-30T03:27:15.963Z,99.90
2019-05-30T03:29:45.717Z,99.90
2019-05-30T03:32:59.350Z,99.90
2019-05-30T03:34:47.785Z,99.90
2019-05-30T03:37:28.058Z,99.90
2019-05-30T03:39:49.003Z,99.90
2019-05-30T03:42:18.646Z,99.90
2019-05-30T03:44:48.591Z,99.90
2019-05-30T03:47:21.058Z,99.90
2019-05-30T03:49:51.645Z,99.90
2019-05-30T03:52:23.036Z,99.90
2019-05-30T03:54:53.428Z,99.90
2019-05-30T03:57:28.210Z,99.90
2019-05-30T04:00:03.031Z,99.90
2019-05-30T04:02:58.699Z,99.90
2019-05-30T04:05:33.159Z,99.90
2019-05-30T04:08:06.598Z,99.90
2019-05-30T04:10:39.209Z,99.90
2019-05-30T04:13:20.238Z,99.90
2019-05-30T04:15:49.815Z,99.80
2019-05-30T04:18:19.692Z,99.70
2019-05-30T04:20:49.575Z,99.60
2019-05-30T04:23:19.719Z,99.70
2019-05-30T04:25:49.260Z,99.70
2019-05-30T04:28:19.032Z,99.70
2019-05-30T04:30:48.733Z,99.50
2019-05-30T04:33:31.653Z,99.50
2019-05-30T04:35:49.999Z,99.30
2019-05-30T04:38:19.737Z,98.90
2019-05-30T04:40:49.555Z,99.10
2019-05-30T04:43:20.199Z,99.10
2019-05-30T04:45:49.957Z,99.10
2019-05-30T04:48:21.249Z,99.10
2019-05-30T04:50:50.916Z,98.90
2019-05-30T04:53:21.151Z,98.90
2019-05-30T04:55:50.984Z,98.80
2019-05-30T04:58:23.804Z,98.80
2019-05-30T05:00:52.034Z,98.60
2019-05-30T05:03:41.603Z,98.60
2019-05-30T05:05:52.979Z,98.60
2019-05-30T05:08:22.737Z,98.40
2019-05-30T05:10:52.886Z,98.30
2019-05-30T05:13:22.635Z,98.40
2019-05-30T05:15:52.312Z,98.30
2019-05-30T05:18:23.360Z,98.40
2019-05-30T05:20:53.727Z,98.10
2019-05-30T05:23:23.626Z,98.00
2019-05-30T05:26:00.817Z,98.10
2019-05-30T05:28:24.820Z,97.70
2019-05-30T05:30:54.475Z,97.80
2019-05-30T05:33:24.783Z,97.40
2019-05-30T05:35:54.466Z,97.40
2019-05-30T05:38:24.424Z,97.40
2019-05-30T05:40:54.079Z,97.60
2019-05-30T05:43:24.498Z,97.30
2019-05-30T05:45:54.147Z,97.20
2019-05-30T05:48:24.751Z,96.90
2019-05-30T05:50:54.709Z,96.90
2019-05-30T05:53:25.079Z,96.70
2019-05-30T05:55:54.860Z,96.20
2019-05-30T05:58:26.454Z,96.20
2019-05-30T06:00:56.090Z,96.30
2019-05-30T06:03:25.764Z,96.30
2019-05-30T06:05:55.568Z,96.00
2019-05-30T06:08:25.833Z,95.60
2019-05-30T06:10:55.818Z,96.00
2019-05-30T06:13:25.504Z,96.00
2019-05-30T06:15:55.457Z,95.70
2019-05-30T06:18:26.327Z,95.60
2019-05-30T06:20:56.245Z,95.70
2019-05-30T06:23:26.124Z,95.40
2019-05-30T06:25:55.794Z,94.20
2019-05-30T06:28:28.216Z,94.50
2019-05-30T06:30:58.999Z,94.80
2019-05-30T06:33:29.215Z,94.70
2019-05-30T06:35:58.743Z,94.30
2019-05-30T06:38:29.429Z,94.00
2019-05-30T06:40:59.082Z,94.40
2019-05-30T06:43:30.183Z,94.00
2019-05-30T06:45:59.848Z,93.90
2019-05-30T06:48:30.869Z,92.90
2019-05-30T06:51:00.660Z,91.90
2019-05-30T06:53:31.394Z,91.70
2019-05-30T06:56:01.291Z,92.50
2019-05-30T06:58:47.365Z,91.60
2019-05-30T07:01:02.593Z,91.40
2019-05-30T07:03:32.679Z,90.90
2019-05-30T07:06:02.822Z,90.70
2019-05-30T07:08:33.036Z,90.50
2019-05-30T07:11:03.232Z,90.40
2019-05-30T07:13:33.715Z,90.20
2019-05-30T07:16:03.598Z,87.20
2019-05-30T07:18:36.296Z,85.70
2019-05-30T07:21:04.708Z,85.00
2019-05-30T07:23:34.316Z,82.60
2019-05-30T07:26:04.164Z,81.80
2019-05-30T07:28:34.204Z,83.40
2019-05-30T07:31:04.006Z,82.80
2019-05-30T07:33:34.567Z,84.10
2019-05-30T07:36:04.271Z,83.70
2019-05-30T07:38:34.739Z,85.40
2019-05-30T07:41:04.603Z,84.80
2019-05-30T07:43:35.238Z,83.40
2019-05-30T07:46:05.053Z,83.00
2019-05-30T07:48:34.699Z,83.40
2019-05-30T07:51:04.653Z,82.60
2019-05-30T07:53:34.975Z,82.60
2019-05-30T07:56:04.937Z,82.50
2019-05-30T07:58:35.349Z,82.50
2019-05-30T08:01:05.066Z,80.60
2019-05-30T08:03:34.794Z,79.30
2019-05-30T08:06:04.710Z,79.40
2019-05-30T08:08:34.592Z,80.40
2019-05-30T08:11:09.253Z,81.30
2019-05-30T08:13:35.763Z,82.00
2019-05-30T08:16:05.525Z,78.00
2019-05-30T08:18:35.870Z,74.40
2019-05-30T08:21:06.118Z,72.90
2019-05-30T08:23:36.279Z,73.80
2019-05-30T08:26:06.129Z,74.40
2019-05-30T08:28:36.373Z,75.00
2019-05-30T08:31:06.132Z,75.40
2019-05-30T08:33:35.845Z,77.10
2019-05-30T08:36:06.034Z,77.80
2019-05-30T08:38:35.651Z,78.70
2019-05-30T08:41:05.292Z,79.60
2019-05-30T08:43:35.559Z,79.70
2019-05-30T08:46:05.551Z,78.40
2019-05-30T08:48:36.206Z,78.80
2019-05-30T08:51:06.173Z,77.90
2019-05-30T08:53:36.447Z,75.00
2019-05-30T08:56:06.727Z,70.70
2019-05-30T08:58:36.827Z,66.00
2019-05-30T09:01:06.511Z,60.70
2019-05-30T09:03:38.443Z,57.80
2019-05-30T09:06:08.258Z,54.70
2019-05-30T09:08:38.483Z,53.80
2019-05-30T09:11:08.103Z,53.00
2019-05-30T09:13:38.916Z,53.00
2019-05-30T09:16:09.117Z,54.10
2019-05-30T09:18:40.273Z,54.20
2019-05-30T09:21:10.700Z,52.70
2019-05-30T09:23:42.114Z,53.50
2019-05-30T09:26:11.878Z,53.40
2019-05-30T09:28:42.213Z,51.30
2019-05-30T09:31:12.040Z,51.90
2019-05-30T09:33:42.732Z,52.50
2019-05-30T09:36:13.982Z,52.10
2019-05-30T09:38:45.406Z,54.10
2019-05-30T09:41:15.194Z,55.40
2019-05-30T09:43:46.322Z,54.90
2019-05-30T09:46:16.234Z,55.80
2019-05-30T09:48:46.710Z,57.80
2019-05-30T09:51:16.493Z,58.40
2019-05-30T09:53:46.153Z,60.40
2019-05-30T09:56:15.869Z,60.30
2019-05-30T09:58:46.042Z,61.70
2019-05-30T10:01:16.549Z,62.10
2019-05-30T10:03:46.609Z,60.20
2019-05-30T10:06:28.364Z,62.40
2019-05-30T10:08:49.433Z,62.80
2019-05-30T10:11:19.516Z,63.00
2019-05-30T10:13:50.820Z,61.60
2019-05-30T10:16:20.295Z,59.80
2019-05-30T10:18:52.845Z,57.60
2019-05-30T10:21:22.802Z,55.20
2019-05-30T10:23:53.730Z,54.20
2019-05-30T10:26:23.354Z,54.20
2019-05-30T10:28:53.369Z,51.90
2019-05-30T10:31:22.945Z,51.20
2019-05-30T10:33:52.993Z,51.10
2019-05-30T10:36:23.150Z,51.60
2019-05-30T10:38:53.817Z,51.50
2019-05-30T10:41:23.535Z,52.10
2019-05-30T10:43:53.228Z,52.20
2019-05-30T10:46:22.811Z,53.00
2019-05-30T10:48:52.815Z,53.20
2019-05-30T10:51:22.673Z,53.10
2019-05-30T10:53:52.727Z,53.50
2019-05-30T10:56:23.394Z,52.70
2019-05-30T10:58:52.985Z,51.30
2019-05-30T11:01:22.580Z,53.00
2019-05-30T11:03:52.605Z,51.70
2019-05-30T11:07:11.430Z,52.00
2019-05-30T11:09:41.511Z,50.60
2019-05-30T11:12:11.063Z,46.90
2019-05-30T11:14:40.630Z,47.00
2019-05-30T11:17:10.292Z,46.50
2019-05-30T11:19:39.774Z,49.00
2019-05-30T11:22:09.610Z,44.70
2019-05-30T11:24:39.132Z,44.30
2019-05-30T11:27:08.755Z,46.50
2019-05-30T11:29:38.362Z,46.10
2019-05-30T11:32:07.988Z,48.20
2019-05-30T11:34:37.551Z,44.20
2019-05-30T11:37:18.592Z,45.80
2019-05-30T11:39:38.384Z,44.50
2019-05-30T11:42:07.973Z,44.70
2019-05-30T11:44:37.510Z,46.60
2019-05-30T11:47:07.069Z,44.70
2019-05-30T11:49:36.760Z,45.90
2019-05-30T11:52:06.284Z,45.90
2019-05-30T11:54:35.989Z,46.10
2019-05-30T11:57:05.839Z,46.70
2019-05-30T11:59:35.394Z,45.80
2019-05-30T12:02:05.356Z,47.40
2019-05-30T12:04:34.892Z,46.70
2019-05-30T12:07:04.387Z,45.10
2019-05-30T12:09:33.987Z,47.20
2019-05-30T12:12:03.503Z,46.20
2019-05-30T12:14:33.128Z,45.60
2019-05-30T12:17:02.723Z,47.70
2019-05-30T12:19:32.279Z,48.40
2019-05-30T12:22:02.138Z,48.90
2019-05-30T12:24:31.846Z,47.70
2019-05-30T12:27:02.372Z,47.60
2019-05-30T12:29:31.950Z,48.30
2019-05-30T12:32:02.365Z,49.90
2019-05-30T12:34:32.895Z,48.60
2019-05-30T12:37:02.837Z,50.20
2019-05-30T12:39:32.408Z,49.10
2019-05-30T12:42:03.339Z,50.00
2019-05-30T12:44:33.018Z,50.10
2019-05-30T12:47:03.482Z,48.20
2019-05-30T12:49:33.058Z,49.30
2019-05-30T12:52:03.245Z,47.30
2019-05-30T12:54:32.912Z,48.30
2019-05-30T12:57:02.897Z,49.10
2019-05-30T12:59:32.343Z,50.70
2019-05-30T13:02:02.999Z,49.90
2019-05-30T13:04:32.690Z,51.10
2019-05-30T13:07:03.281Z,51.90
2019-05-30T13:09:32.975Z,53.20
2019-05-30T13:12:02.627Z,51.80
2019-05-30T13:14:32.176Z,52.10
2019-05-30T13:17:01.933Z,51.80
2019-05-30T13:19:31.566Z,51.20
2019-05-30T13:22:01.475Z,52.20
2019-05-30T13:24:30.999Z,52.40
2019-05-30T13:27:01.691Z,50.70
2019-05-30T13:29:32.430Z,50.30
2019-05-30T13:32:02.654Z,51.90
2019-05-30T13:34:32.376Z,52.60
2019-05-30T13:37:02.981Z,51.70
2019-05-30T13:39:32.609Z,51.60
2019-05-30T13:42:03.568Z,51.30
2019-05-30T13:44:33.214Z,51.90
2019-05-30T13:47:04.490Z,51.40
2019-05-30T13:49:34.208Z,50.60
2019-05-30T13:52:05.137Z,50.10
2019-05-30T13:54:34.816Z,51.80
2019-05-30T13:57:05.659Z,51.90
2019-05-30T13:59:35.369Z,52.90
2019-05-30T14:02:06.031Z,53.90
2019-05-30T14:04:36.013Z,54.10
2019-05-30T14:07:06.372Z,54.90
2019-05-30T14:09:36.148Z,54.20
2019-05-30T14:12:06.709Z,54.20
2019-05-30T14:14:36.563Z,53.60
2019-05-30T14:17:10.361Z,54.10
2019-05-30T14:19:37.452Z,53.30
2019-05-30T14:22:07.288Z,53.00
2019-05-30T14:24:36.776Z,53.60
2019-05-30T14:27:07.521Z,53.00
2019-05-30T14:29:37.141Z,51.50
2019-05-30T14:32:07.821Z,51.30
2019-05-30T14:34:37.538Z,52.60
2019-05-30T14:37:07.062Z,51.80
2019-05-30T14:39:36.641Z,52.20
2019-05-30T14:42:07.081Z,52.60
2019-05-30T14:44:36.632Z,52.80
2019-05-30T14:47:06.439Z,52.50
2019-05-30T14:49:36.124Z,52.00
2019-05-30T14:52:06.699Z,50.70
2019-05-30T14:54:36.204Z,49.60
2019-05-30T14:57:06.737Z,50.70
2019-05-30T14:59:36.350Z,49.60
2019-05-30T15:02:07.057Z,49.10
2019-05-30T15:04:37.050Z,50.90
2019-05-30T15:07:07.419Z,51.10
2019-05-30T15:09:36.936Z,50.40
2019-05-30T15:12:07.037Z,50.30
2019-05-30T15:14:36.546Z,50.90
2019-05-30T15:17:06.204Z,50.50
2019-05-30T15:19:36.135Z,50.20
2019-05-30T15:22:05.830Z,50.00
2019-05-30T15:24:35.414Z,50.90
2019-05-30T15:27:05.992Z,50.80
2019-05-30T15:29:35.585Z,51.00
2019-05-30T15:32:06.186Z,50.60
2019-05-30T15:34:35.824Z,49.90
2019-05-30T15:37:06.566Z,50.30
2019-05-30T15:39:36.371Z,50.20
2019-05-30T15:42:07.109Z,48.80
2019-05-30T15:44:36.773Z,49.50
2019-05-30T15:47:07.826Z,48.70
2019-05-30T15:49:37.460Z,49.60
2019-05-30T15:52:07.013Z,48.80
2019-05-30T15:54:36.562Z,49.10
2019-05-30T15:57:06.176Z,47.90
2019-05-30T15:59:35.744Z,49.00
2019-05-30T16:02:05.328Z,50.00
2019-05-30T16:04:34.929Z,49.90
2019-05-30T16:07:04.812Z,50.40
2019-05-30T16:09:46.317Z,50.00
2019-05-30T16:12:05.555Z,50.40
2019-05-30T16:14:35.098Z,50.10
2019-05-30T16:17:04.994Z,50.10
2019-05-30T16:19:34.575Z,50.30
2019-05-30T16:22:04.616Z,50.60
2019-05-30T16:24:34.163Z,50.10
2019-05-30T16:27:03.783Z,49.20
2019-05-30T16:29:33.303Z,48.20
2019-05-30T16:32:02.998Z,48.10
2019-05-30T16:34:32.911Z,48.30
2019-05-30T16:37:02.593Z,48.10
2019-05-30T16:39:32.119Z,47.60
2019-05-30T16:42:01.874Z,46.90
2019-05-30T16:44:31.463Z,47.90
2019-05-30T16:47:01.111Z,46.60
2019-05-30T16:49:30.621Z,47.30
2019-05-30T16:52:00.228Z,47.90
2019-05-30T16:54:29.776Z,48.10
2019-05-30T16:56:59.375Z,47.90
2019-05-30T16:59:28.900Z,48.00
2019-05-30T17:01:58.834Z,48.70
2019-05-30T17:04:28.713Z,48.10
2019-05-30T17:06:58.380Z,48.70
2019-05-30T17:09:27.872Z,48.00
2019-05-30T17:11:57.456Z,47.20
2019-05-30T17:14:27.062Z,48.00
2019-05-30T17:16:56.597Z,47.40
2019-05-30T17:19:26.568Z,48.20
2019-05-30T17:21:56.306Z,48.20
2019-05-30T17:24:27.157Z,48.00
2019-05-30T17:26:56.844Z,48.30
2019-05-30T17:29:27.600Z,49.30
2019-05-30T17:31:57.314Z,48.40
2019-05-30T17:34:28.084Z,48.80
2019-05-30T17:36:57.626Z,47.90
2019-05-30T17:39:28.756Z,48.20
2019-05-30T17:41:58.507Z,48.70
2019-05-30T17:44:29.618Z,48.40
2019-05-30T17:46:59.375Z,48.40
2019-05-30T17:49:30.008Z,48.40
2019-05-30T17:51:59.676Z,48.40
2019-05-30T17:54:30.019Z,50.80
2019-05-30T17:57:00.246Z,50.60
2019-05-30T17:59:30.453Z,49.70
2019-05-30T18:02:01.060Z,48.90
2019-05-30T18:04:30.991Z,49.30
2019-05-30T18:07:00.594Z,50.40
2019-05-30T18:09:31.161Z,49.70
2019-05-30T18:12:00.790Z,50.10
2019-05-30T18:14:31.422Z,50.90
2019-05-30T18:17:01.138Z,51.80
2019-05-30T18:19:31.526Z,51.10
2019-05-30T18:22:01.272Z,50.60
2019-05-30T18:24:31.804Z,51.20
2019-05-30T18:27:01.434Z,51.30
2019-05-30T18:29:32.116Z,51.60
2019-05-30T18:32:01.764Z,52.80
2019-05-30T18:34:32.624Z,52.40
2019-05-30T18:37:02.433Z,53.30
2019-05-30T18:39:32.870Z,53.10
2019-05-30T18:42:02.486Z,54.60
2019-05-30T18:44:33.191Z,53.80
2019-05-30T18:47:03.346Z,53.20
2019-05-30T18:49:33.366Z,53.30
2019-05-30T18:52:02.968Z,54.10
2019-05-30T18:54:32.895Z,54.80
2019-05-30T18:57:02.500Z,55.40
2019-05-30T18:59:33.161Z,55.00
2019-05-30T19:02:02.871Z,55.60
2019-05-30T19:04:33.571Z,54.90
2019-05-30T19:07:04.281Z,55.60
2019-05-30T19:09:33.782Z,55.40
2019-05-30T19:12:03.452Z,56.20
2019-05-30T19:14:34.559Z,56.30
2019-05-30T19:17:04.319Z,57.10
2019-05-30T19:19:34.296Z,58.20
2019-05-30T19:22:04.155Z,58.20
2019-05-30T19:24:34.186Z,57.30
2019-05-30T19:27:03.787Z,58.10
2019-05-30T19:29:34.785Z,58.40
2019-05-30T19:32:04.578Z,58.30
2019-05-30T19:34:34.927Z,60.60
2019-05-30T19:37:04.559Z,60.80
2019-05-30T19:39:35.607Z,61.00
2019-05-30T19:42:05.268Z,62.00
2019-05-30T19:44:38.425Z,61.70
2019-05-30T19:47:06.064Z,62.60
2019-05-30T19:49:36.922Z,63.10
2019-05-30T19:52:06.607Z,63.00
2019-05-30T19:54:37.184Z,62.60
2019-05-30T19:57:06.795Z,64.00
2019-05-30T19:59:36.382Z,64.40
2019-05-30T20:02:05.903Z,62.10
2019-05-30T20:04:36.320Z,60.90
2019-05-30T20:07:05.939Z,61.10
2019-05-30T20:09:36.577Z,61.70
2019-05-30T20:12:08.820Z,61.80
2019-05-30T20:14:37.364Z,63.40
2019-05-30T20:17:06.914Z,62.90
2019-05-30T20:19:37.803Z,63.80
2019-05-30T20:22:07.515Z,66.50
2019-05-30T20:24:38.215Z,66.10
2019-05-30T20:27:11.693Z,65.10
2019-05-30T20:29:43.646Z,67.10
2019-05-30T20:32:12.463Z,65.10
2019-05-30T20:34:43.101Z,67.00
2019-05-30T20:37:13.150Z,65.80
2019-05-30T20:39:42.947Z,67.50
2019-05-30T20:42:19.235Z,66.50
2019-05-30T20:44:43.781Z,67.90
2019-05-30T20:47:13.318Z,66.90
2019-05-30T20:49:43.461Z,67.70
2019-05-30T20:52:12.997Z,68.50
2019-05-30T20:54:43.504Z,68.20
2019-05-30T20:57:13.099Z,69.90
2019-05-30T20:59:42.751Z,69.50
2019-05-30T21:02:12.273Z,69.60
2019-05-30T21:04:42.987Z,70.20
2019-05-30T21:07:12.906Z,69.80
2019-05-30T21:09:44.113Z,70.10
2019-05-30T21:12:15.816Z,72.40
2019-05-30T21:14:47.928Z,71.60
2019-05-30T21:17:17.975Z,71.20
2019-05-30T21:19:47.543Z,72.30
2019-05-30T21:22:17.551Z,71.30
2019-05-30T21:24:47.447Z,71.80
2019-05-30T21:27:17.075Z,72.40
2019-05-30T21:29:47.598Z,72.70
2019-05-30T21:32:17.359Z,72.80
2019-05-30T21:34:48.366Z,75.50
2019-05-30T21:37:18.295Z,75.20
2019-05-30T21:39:48.167Z,75.30
2019-05-30T21:42:18.372Z,76.30
2019-05-30T21:44:51.485Z,75.20
2019-05-30T21:47:19.362Z,75.80
2019-05-30T21:49:49.235Z,75.80
2019-05-30T21:52:18.841Z,77.20
2019-05-30T21:54:48.490Z,78.00
2019-05-30T21:57:18.222Z,78.20
2019-05-30T21:59:48.934Z,78.40
2019-05-30T22:02:18.641Z,78.70
2019-05-30T22:04:48.664Z,78.40
2019-05-30T22:07:18.248Z,78.00
2019-05-30T22:09:47.765Z,78.70
2019-05-30T22:12:17.314Z,78.70
2019-05-30T22:14:47.793Z,79.60
2019-05-30T22:17:17.444Z,79.40
2019-05-30T22:19:47.862Z,80.20
2019-05-30T22:22:18.026Z,79.20
2019-05-30T22:24:48.490Z,80.20
2019-05-30T22:27:19.351Z,80.00
2019-05-30T22:29:48.983Z,80.40
2019-05-30T22:32:18.699Z,81.30
2019-05-30T22:34:48.764Z,80.30
2019-05-30T22:37:18.395Z,80.10
2019-05-30T22:39:48.927Z,80.20
2019-05-30T22:42:18.474Z,81.00
2019-05-30T22:44:48.091Z,80.90
2019-05-30T22:47:17.792Z,81.60
2019-05-30T22:49:48.645Z,81.20
2019-05-30T22:52:18.341Z,80.40
2019-05-30T22:54:51.244Z,80.80
2019-05-30T22:57:20.887Z,81.50
2019-05-30T22:59:51.024Z,81.00
2019-05-30T23:02:20.942Z,81.50
2019-05-30T23:04:50.506Z,80.70
2019-05-30T23:07:20.086Z,81.50
2019-05-30T23:09:49.635Z,81.00
2019-05-30T23:12:19.216Z,81.70
2019-05-30T23:14:50.010Z,82.10
2019-05-30T23:17:19.731Z,82.40
2019-05-30T23:19:50.864Z,81.40
2019-05-30T23:22:21.299Z,81.20
2019-05-30T23:24:52.270Z,82.00
2019-05-30T23:27:22.215Z,82.50
2019-05-30T23:29:51.831Z,82.40
2019-05-30T23:32:21.394Z,82.20
2019-05-30T23:34:50.867Z,83.10
2019-05-30T23:37:20.775Z,82.90
2019-05-30T23:39:50.725Z,84.00
2019-05-30T23:42:20.311Z,83.30
2019-05-30T23:44:49.881Z,83.40
2019-05-30T23:47:19.580Z,83.20
2019-05-30T23:49:49.901Z,83.30
2019-05-30T23:52:19.609Z,83.00
2019-05-30T23:54:50.038Z,83.20
2019-05-30T23:57:19.740Z,82.70
2019-05-30T23:59:50.537Z,82.50
